KCEC/CEC METAR and TAF weather

Enter ICAO airport designator
Station Type Date Time Source
KCEC METAR 2024/04/18 07:56 UTC NOAA

KCEC 180756Z AUTO 17003KT 7SM CLR 08/07 A3003 RMK AO2 SLP171 T00830072 401280050


Station Type Date Time Source
KCEC Decoded METAR 2024/04/18 07:56 UTC NOAA

CRESCENT CITY MC NAMARA, CA, United States (KCEC) 41-47N 124-14W
Apr 18, 2024 - 03:56 AM EDT / 2024.04.18 0756 UTC
Wind: from the S (170 degrees) at 3 MPH (3 KT):0
Visibility: 7 mile(s):0
Sky conditions: clear
Temperature: 46.9 F (8.3 C)
Dew Point: 45.0 F (7.2 C)
Relative Humidity: 92%
Pressure (altimeter): 30.03 in. Hg (1016 hPa)
ob: KCEC 180756Z AUTO 17003KT 7SM CLR 08/07 A3003 RMK AO2 SLP171 T00830072 401280050
cycle: 8

Station Type Date Time Source
KCEC TAF 2024/04/18 06:36 UTC NOAA